Terminal Aerodrome Forecast
Issued by NWS

Home | Current Version | Previous Version | Text Only | Print | Product List | Glossary On
Versions: 1 2 3 4 5 6 7 8 9 10 11 12 13
294
FTUS45 KRIW 131951 AAA
TAFLND
TAF AMD
KLND 131951Z 1320/1418 33006KT P6SM VCSH SCT025 OVC050
     FM132230 33006KT 2SM -SN OVC016
     FM140600 VRB04KT P6SM VCSH OVC024
     FM141100 VRB04KT P6SM SCT024 BKN040=

USA.gov is the U.S. government's official web portal to all federal, state and local government web resources and services.